Terminal Aerodrome Forecast
Issued by NWS

Home | Current Version | Previous Version | Text Only | Print | Product List | Glossary On
Versions: 1 2 3 4 5 6 7 8 9 10 11 12 13 14 15 16 17
000
FTUS45 KABQ 032300
TAFLVS
TAF
KLVS 032330Z 0400/0424 35012KT P6SM VCTS BKN080CB BKN100
      TEMPO 0400/0402 -SHRA BKN060
     FM040300 04007KT P6SM SCT080 BKN120
     FM040600 24007KT P6SM SCT150
     FM041600 18015G25KT P6SM SCT100
     FM041800 17010G17KT P6SM BKN080 PROB30 0418/0423 -TSRA
      BKN050CB=

USA.gov is the U.S. government's official web portal to all federal, state and local government web resources and services.